Scales Mound, Illinois
Current Conditions -  °F | °C
As of 10:15 AM on Thursday 18 Dec 2014 (Local Time) from KPVB Reporting Station
Clear Clear  
Wind Chill: 21°   Ceiling: Unl
Heat Index: 21°   Visibility: 10mi
Dew Point: 17°   Wind: 0mph
Humidity: 83%   Direction: NA
Pressure: 30.31"   Gusts: NA
Location:  42.48°N, 90.25°W
Report Text: KPVB 181615Z AUTO 00000KT 10SM CLR M06/M08 A3031 RMK AO1 T10591083
Loading
Personal Weather Stations






























Interactive Weather Map New forecast layout! Learn more

10-Day Weather Forecast

Advertisements
Track Severe Weather on mobile